createdAt,value
2022-09-12T00:00:00.831Z,12.00
2022-09-12T00:03:22.413Z,12.00
2022-09-12T00:06:45.327Z,12.00
2022-09-12T00:10:07.198Z,12.00
2022-09-12T00:13:28.757Z,12.00
2022-09-12T00:16:50.372Z,11.90
2022-09-12T00:20:11.922Z,11.90
2022-09-12T00:23:34.817Z,11.90
2022-09-12T00:26:56.404Z,11.90
2022-09-12T00:30:17.951Z,11.80
2022-09-12T00:33:40.740Z,11.80
2022-09-12T00:37:02.300Z,11.80
2022-09-12T00:40:25.181Z,11.70
2022-09-12T00:43:47.393Z,11.70
2022-09-12T00:47:13.590Z,11.60
2022-09-12T00:50:35.225Z,11.60
2022-09-12T00:53:57.626Z,11.60
2022-09-12T00:57:21.277Z,11.60
2022-09-12T01:00:42.875Z,11.50
2022-09-12T01:04:04.515Z,11.50
2022-09-12T01:07:26.390Z,11.40
2022-09-12T01:10:48.602Z,11.40
2022-09-12T01:14:12.084Z,11.30
2022-09-12T01:17:37.543Z,11.30
2022-09-12T01:21:05.616Z,11.30
2022-09-12T01:24:37.366Z,11.30
2022-09-12T01:28:27.073Z,11.30
2022-09-12T01:31:54.070Z,11.40
2022-09-12T01:35:19.183Z,11.30
2022-09-12T01:38:43.656Z,11.30
2022-09-12T01:42:10.734Z,11.30
2022-09-12T01:45:33.790Z,11.20
2022-09-12T01:48:59.504Z,11.20
2022-09-12T01:52:22.886Z,11.10
2022-09-12T01:55:48.449Z,11.20
2022-09-12T01:59:12.376Z,11.20
2022-09-12T02:02:35.462Z,11.10
2022-09-12T02:06:01.316Z,11.10
2022-09-12T02:09:25.722Z,11.10
2022-09-12T02:12:49.881Z,11.20
2022-09-12T02:16:14.735Z,11.20
2022-09-12T02:19:39.333Z,11.20
2022-09-12T02:23:04.156Z,11.20
2022-09-12T02:26:29.753Z,11.20
2022-09-12T02:29:51.635Z,11.10
2022-09-12T02:33:17.169Z,11.00
2022-09-12T02:36:42.295Z,11.00
2022-09-12T02:40:05.697Z,11.00
2022-09-12T02:43:27.351Z,11.00
2022-09-12T02:46:50.661Z,10.90
2022-09-12T02:50:12.789Z,10.90
2022-09-12T02:53:34.355Z,10.80
2022-09-12T02:56:57.326Z,10.80
2022-09-12T03:00:18.971Z,10.70
2022-09-12T03:03:52.028Z,10.70
2022-09-12T03:07:16.725Z,10.70
2022-09-12T03:10:42.282Z,10.70
2022-09-12T03:14:09.833Z,10.70
2022-09-12T03:17:40.786Z,10.60
2022-09-12T03:21:04.335Z,10.60
2022-09-12T03:24:29.271Z,10.60
2022-09-12T03:27:54.077Z,10.50
2022-09-12T03:31:17.921Z,10.40
2022-09-12T03:34:39.493Z,10.40
2022-09-12T03:38:01.044Z,10.40
2022-09-12T03:41:22.616Z,10.40
2022-09-12T03:44:44.175Z,10.40
2022-09-12T03:48:07.106Z,10.30
2022-09-12T03:51:28.662Z,10.30
2022-09-12T03:54:50.225Z,10.30
2022-09-12T03:58:11.796Z,10.30
2022-09-12T04:01:33.762Z,10.30
2022-09-12T04:04:56.822Z,10.30
2022-09-12T04:08:18.375Z,10.30
2022-09-12T04:11:39.914Z,10.30
2022-09-12T04:15:01.611Z,10.30
2022-09-12T04:18:23.158Z,10.30
2022-09-12T04:21:46.250Z,10.30
2022-09-12T04:25:09.740Z,10.30
2022-09-12T04:28:31.299Z,10.30
2022-09-12T04:31:52.858Z,10.30
2022-09-12T04:35:14.534Z,10.30
2022-09-12T04:38:37.980Z,10.30
2022-09-12T04:41:59.521Z,10.30
2022-09-12T04:45:21.054Z,10.20
2022-09-12T04:48:43.403Z,10.20
2022-09-12T04:52:05.045Z,10.20
2022-09-12T04:55:27.941Z,10.20
2022-09-12T04:58:49.756Z,10.20
2022-09-12T05:02:11.620Z,10.20
2022-09-12T05:05:33.490Z,10.20
2022-09-12T05:08:55.069Z,10.20
2022-09-12T05:12:17.943Z,10.30
2022-09-12T05:15:39.472Z,10.30
2022-09-12T05:19:01.035Z,10.30
2022-09-12T05:22:22.586Z,10.40
2022-09-12T05:25:48.240Z,10.40
2022-09-12T05:29:11.137Z,10.50
2022-09-12T05:32:32.703Z,10.60
2022-09-12T05:35:54.248Z,10.70
2022-09-12T05:39:15.948Z,10.80
2022-09-12T05:42:37.471Z,10.90
2022-09-12T05:46:04.169Z,11.10
2022-09-12T05:49:25.940Z,11.30
2022-09-12T05:52:47.490Z,11.40
2022-09-12T05:56:10.003Z,11.60
2022-09-12T05:59:32.071Z,11.70
2022-09-12T06:02:54.954Z,12.20
2022-09-12T06:06:17.542Z,13.30
2022-09-12T06:09:39.208Z,14.60
2022-09-12T06:13:00.730Z,15.80
2022-09-12T06:16:23.828Z,17.40
2022-09-12T06:19:46.831Z,18.80
2022-09-12T06:23:08.386Z,20.00
2022-09-12T06:26:30.191Z,20.20
2022-09-12T06:29:51.715Z,20.40
2022-09-12T06:33:13.311Z,19.90
2022-09-12T06:36:37.011Z,19.60
2022-09-12T06:39:58.630Z,18.30
2022-09-12T06:43:20.202Z,17.40
2022-09-12T06:46:42.018Z,16.50
2022-09-12T06:50:03.806Z,16.50
2022-09-12T06:53:27.577Z,17.90
2022-09-12T06:56:49.565Z,18.60
2022-09-12T07:00:11.826Z,20.00
2022-09-12T07:03:33.627Z,21.20
2022-09-12T07:06:55.221Z,21.90
2022-09-12T07:10:22.194Z,22.40
2022-09-12T07:13:45.516Z,22.10
2022-09-12T07:17:07.227Z,22.40
2022-09-12T07:20:29.816Z,23.20
2022-09-12T07:23:51.367Z,23.90
2022-09-12T07:27:14.256Z,24.30
2022-09-12T07:30:36.619Z,25.30
2022-09-12T07:33:58.233Z,26.20
2022-09-12T07:37:19.776Z,26.90
2022-09-12T07:40:41.323Z,27.40
2022-09-12T07:44:04.416Z,27.30
2022-09-12T07:47:25.927Z,27.50
2022-09-12T07:50:47.576Z,28.60
2022-09-12T07:54:09.187Z,29.00
2022-09-12T07:57:30.707Z,28.90
2022-09-12T08:00:53.623Z,29.30
2022-09-12T08:04:15.171Z,28.90
2022-09-12T08:07:36.736Z,29.20
2022-09-12T08:10:58.465Z,30.00
2022-09-12T08:14:20.003Z,30.00
2022-09-12T08:17:42.888Z,30.30
2022-09-12T08:21:05.304Z,30.10
2022-09-12T08:24:26.822Z,30.40
2022-09-12T08:27:48.355Z,30.50
2022-09-12T08:31:11.479Z,30.00
2022-09-12T08:34:34.385Z,29.80
2022-09-12T08:37:56.024Z,29.70
2022-09-12T08:41:22.575Z,30.20
2022-09-12T08:44:50.818Z,30.50
2022-09-12T08:48:12.486Z,30.50
2022-09-12T08:51:35.704Z,30.30
2022-09-12T08:54:57.244Z,30.50
2022-09-12T08:58:19.650Z,30.10
2022-09-12T09:01:43.059Z,30.30
2022-09-12T09:05:10.803Z,30.00
2022-09-12T09:08:46.128Z,30.00
2022-09-12T09:12:13.963Z,30.00
2022-09-12T09:15:41.221Z,29.90
2022-09-12T09:19:04.221Z,30.10
2022-09-12T09:22:32.109Z,30.10
2022-09-12T09:25:57.956Z,30.30
2022-09-12T09:29:20.082Z,30.00
2022-09-12T09:32:42.138Z,30.00
2022-09-12T09:36:08.171Z,29.30
2022-09-12T09:39:36.294Z,28.60
2022-09-12T09:43:01.951Z,29.00
2022-09-12T09:46:23.685Z,29.20
2022-09-12T09:49:45.502Z,28.90
2022-09-12T09:53:10.205Z,28.50
2022-09-12T09:56:33.010Z,28.70
2022-09-12T09:59:55.886Z,28.80
2022-09-12T10:03:25.511Z,28.40
2022-09-12T10:06:47.118Z,27.60
2022-09-12T10:10:14.978Z,27.90
2022-09-12T10:13:38.088Z,28.20
2022-09-12T10:17:01.334Z,28.30
2022-09-12T10:20:29.931Z,28.30
2022-09-12T10:23:52.922Z,27.90
2022-09-12T10:27:16.209Z,27.50
2022-09-12T10:30:37.857Z,27.10
2022-09-12T10:34:00.913Z,27.10
2022-09-12T10:37:24.612Z,26.70
2022-09-12T10:40:54.704Z,26.00
2022-09-12T10:44:17.409Z,25.70
2022-09-12T10:47:39.005Z,25.10
2022-09-12T10:51:01.929Z,24.80
2022-09-12T10:54:24.734Z,24.30
2022-09-12T10:58:00.889Z,23.70
2022-09-12T11:01:29.262Z,23.70
2022-09-12T11:04:55.866Z,23.40
2022-09-12T11:08:35.128Z,23.20
2022-09-12T11:12:02.038Z,23.20
2022-09-12T11:15:38.557Z,23.40
2022-09-12T11:19:10.679Z,23.60
2022-09-12T11:22:39.694Z,23.80
2022-09-12T11:26:06.349Z,23.80
2022-09-12T11:29:36.011Z,23.70
2022-09-12T11:33:01.806Z,23.90
2022-09-12T11:36:29.551Z,24.00
2022-09-12T11:39:55.382Z,23.90
2022-09-12T11:43:23.180Z,23.70
2022-09-12T11:46:51.085Z,23.60
2022-09-12T11:50:18.315Z,23.60
2022-09-12T11:53:40.564Z,23.70
2022-09-12T11:57:05.877Z,23.60
2022-09-12T12:00:29.876Z,23.60
2022-09-12T12:03:52.947Z,23.50
2022-09-12T12:07:14.528Z,23.50
2022-09-12T12:10:37.742Z,23.50
2022-09-12T12:14:01.019Z,23.50
2022-09-12T12:17:23.962Z,23.50
2022-09-12T12:24:19.348Z,23.50
2022-09-12T12:27:51.926Z,23.50
2022-09-12T12:31:13.594Z,23.60
2022-09-12T12:34:36.043Z,23.50
2022-09-12T12:41:57.231Z,23.70
2022-09-12T12:45:37.133Z,23.70
2022-09-12T12:49:04.193Z,23.50
2022-09-12T12:52:28.444Z,23.50
2022-09-12T12:55:50.536Z,23.40
2022-09-12T12:59:15.853Z,23.40
2022-09-12T13:02:39.592Z,23.40
2022-09-12T13:06:02.160Z,23.50
2022-09-12T13:09:26.750Z,23.50
2022-09-12T13:12:48.318Z,23.70
2022-09-12T13:16:11.870Z,23.80
2022-09-12T13:19:36.038Z,23.80
2022-09-12T13:22:57.807Z,23.90
2022-09-12T13:26:21.828Z,23.80
2022-09-12T13:29:43.365Z,23.80
2022-09-12T13:33:09.958Z,23.70
2022-09-12T13:36:38.611Z,23.90
2022-09-12T13:40:05.328Z,23.80
2022-09-12T13:43:31.317Z,23.90
2022-09-12T13:46:53.198Z,24.00
2022-09-12T13:50:17.268Z,24.10
2022-09-12T13:53:41.943Z,24.10
2022-09-12T13:57:03.662Z,24.10
2022-09-12T14:00:25.631Z,24.00
2022-09-12T14:03:49.236Z,24.10
2022-09-12T14:07:14.447Z,24.00
2022-09-12T14:10:37.640Z,23.90
2022-09-12T14:14:06.750Z,23.80
2022-09-12T14:17:31.729Z,23.80
2022-09-12T14:20:53.964Z,23.80
2022-09-12T14:24:16.854Z,23.70
2022-09-12T14:27:40.579Z,23.70
2022-09-12T14:31:03.225Z,23.80
2022-09-12T14:34:24.820Z,23.90
2022-09-12T14:37:47.771Z,24.00
2022-09-12T14:41:11.968Z,23.90
2022-09-12T14:44:34.055Z,23.90
2022-09-12T14:47:56.333Z,23.90
2022-09-12T14:51:22.091Z,23.90
2022-09-12T14:54:43.870Z,23.90
2022-09-12T14:58:16.237Z,24.00
2022-09-12T15:01:37.843Z,24.00
2022-09-12T15:05:15.471Z,23.90
2022-09-12T15:08:37.041Z,23.90
2022-09-12T15:11:58.563Z,23.80
2022-09-12T15:15:21.450Z,23.90
2022-09-12T15:18:43.201Z,23.90
2022-09-12T15:22:04.826Z,23.90
2022-09-12T15:25:26.349Z,23.90
2022-09-12T15:28:48.054Z,23.90
2022-09-12T15:32:21.983Z,23.80
2022-09-12T15:35:43.615Z,23.80
2022-09-12T15:39:05.167Z,23.80
2022-09-12T15:42:28.527Z,23.80
2022-09-12T15:45:50.474Z,23.80
2022-09-12T15:49:13.666Z,23.80
2022-09-12T15:52:35.196Z,23.80
2022-09-12T15:55:56.735Z,23.70
2022-09-12T15:59:18.252Z,23.70
2022-09-12T16:02:39.964Z,23.70
2022-09-12T16:06:03.277Z,23.60
2022-09-12T16:09:24.892Z,23.70
2022-09-12T16:12:46.430Z,23.60
2022-09-12T16:16:09.232Z,23.60
2022-09-12T16:19:30.852Z,23.50
2022-09-12T16:22:53.745Z,23.50
2022-09-12T16:26:15.711Z,23.50
2022-09-12T16:29:37.387Z,23.40
2022-09-12T16:32:58.930Z,23.30
2022-09-12T16:36:21.102Z,23.20
2022-09-12T16:39:44.259Z,23.00
2022-09-12T16:43:05.787Z,22.90
2022-09-12T16:46:27.581Z,22.80
2022-09-12T16:49:49.144Z,22.70
2022-09-12T16:53:10.678Z,22.50
2022-09-12T16:56:33.556Z,22.40
2022-09-12T16:59:55.068Z,22.30
2022-09-12T17:03:16.600Z,22.20
2022-09-12T17:06:38.267Z,22.00
2022-09-12T17:09:59.786Z,21.90
2022-09-12T17:13:22.711Z,21.80
2022-09-12T17:16:50.841Z,21.60
2022-09-12T17:20:13.317Z,21.50
2022-09-12T17:23:34.860Z,21.40
2022-09-12T17:26:56.417Z,21.20
2022-09-12T17:30:19.319Z,21.20
2022-09-12T17:33:40.947Z,21.00
2022-09-12T17:37:02.499Z,20.90
2022-09-12T17:40:42.535Z,20.60
2022-09-12T17:44:05.603Z,20.40
2022-09-12T17:47:28.465Z,20.20
2022-09-12T17:50:50.012Z,20.10
2022-09-12T17:54:12.357Z,20.00
2022-09-12T17:57:33.888Z,19.80
2022-09-12T18:00:59.916Z,19.60
2022-09-12T18:04:22.802Z,19.40
2022-09-12T18:07:44.389Z,19.20
2022-09-12T18:11:06.239Z,19.10
2022-09-12T18:14:27.965Z,19.00
2022-09-12T18:17:49.487Z,19.00
2022-09-12T18:21:12.403Z,19.00
2022-09-12T18:24:33.932Z,18.90
2022-09-12T18:27:55.506Z,18.70
2022-09-12T18:31:18.269Z,18.60
2022-09-12T18:34:39.854Z,18.50
2022-09-12T18:38:02.735Z,18.40
2022-09-12T18:41:24.954Z,18.20
2022-09-12T18:44:46.495Z,18.10
2022-09-12T18:48:08.034Z,18.00
2022-09-12T18:51:30.295Z,17.90
2022-09-12T18:54:53.327Z,17.80
2022-09-12T18:58:16.179Z,17.70
2022-09-12T19:01:38.339Z,17.60
2022-09-12T19:04:59.938Z,17.60
2022-09-12T19:08:21.464Z,17.60
2022-09-12T19:11:45.402Z,17.50
2022-09-12T19:15:07.425Z,17.40
2022-09-12T19:18:28.970Z,17.50
2022-09-12T19:21:50.563Z,17.50
2022-09-12T19:25:12.146Z,17.40
2022-09-12T19:28:35.259Z,17.40
2022-09-12T19:31:56.797Z,17.40
2022-09-12T19:35:18.340Z,17.30
2022-09-12T19:38:39.892Z,17.30
2022-09-12T19:42:01.693Z,17.20
2022-09-12T19:45:24.621Z,17.10
2022-09-12T19:48:46.352Z,17.00
2022-09-12T19:52:08.081Z,16.90
2022-09-12T19:55:29.763Z,16.80
2022-09-12T19:58:56.071Z,16.70
2022-09-12T20:02:19.687Z,16.60
2022-09-12T20:05:42.910Z,16.60
2022-09-12T20:09:04.679Z,16.60
2022-09-12T20:12:26.869Z,16.60
2022-09-12T20:15:48.539Z,16.50
2022-09-12T20:19:11.450Z,16.40
2022-09-12T20:22:37.953Z,16.30
2022-09-12T20:26:01.912Z,16.30
2022-09-12T20:29:23.587Z,16.10
2022-09-12T20:32:45.175Z,16.10
2022-09-12T20:36:09.621Z,15.90
2022-09-12T20:39:31.164Z,15.80
2022-09-12T20:42:52.695Z,15.80
2022-09-12T20:46:16.684Z,15.90
2022-09-12T20:49:40.185Z,15.90
2022-09-12T20:53:03.112Z,15.80
2022-09-12T20:56:25.246Z,15.80
2022-09-12T20:59:46.774Z,15.70
2022-09-12T21:03:08.296Z,15.60
2022-09-12T21:06:30.133Z,15.50
2022-09-12T21:09:53.006Z,15.40
2022-09-12T21:13:14.525Z,15.40
2022-09-12T21:16:36.070Z,15.30
2022-09-12T21:19:57.621Z,15.20
2022-09-12T21:23:19.409Z,15.20
2022-09-12T21:26:42.324Z,15.20
2022-09-12T21:30:04.203Z,15.10
2022-09-12T21:33:25.817Z,15.00
2022-09-12T21:36:47.340Z,14.90
2022-09-12T21:40:09.272Z,14.90
2022-09-12T21:43:32.220Z,14.90
2022-09-12T21:46:53.790Z,15.00
2022-09-12T21:50:15.567Z,14.90
2022-09-12T21:53:37.227Z,14.90
2022-09-12T21:56:58.781Z,14.90
2022-09-12T22:00:22.132Z,14.90
2022-09-12T22:03:43.711Z,14.80
2022-09-12T22:07:05.275Z,14.80
2022-09-12T22:10:26.850Z,14.70
2022-09-12T22:13:48.467Z,14.70
2022-09-12T22:17:11.380Z,14.60
2022-09-12T22:20:32.916Z,14.50
2022-09-12T22:23:54.449Z,14.60
2022-09-12T22:27:16.100Z,14.60
2022-09-12T22:30:37.646Z,14.60
2022-09-12T22:34:00.517Z,14.50
2022-09-12T22:37:22.048Z,14.50
2022-09-12T22:40:43.589Z,14.50
2022-09-12T22:44:05.127Z,14.50
2022-09-12T22:47:26.696Z,14.40
2022-09-12T22:50:49.594Z,14.40
2022-09-12T22:54:11.195Z,14.30
2022-09-12T22:57:32.714Z,14.20
2022-09-12T23:00:54.327Z,14.10
2022-09-12T23:04:15.904Z,14.10
2022-09-12T23:07:38.872Z,14.00
2022-09-12T23:11:01.093Z,13.90
2022-09-12T23:14:22.603Z,13.90
2022-09-12T23:17:44.154Z,13.80
2022-09-12T23:21:06.924Z,13.80
2022-09-12T23:24:30.013Z,13.80
2022-09-12T23:27:51.762Z,13.70
2022-09-12T23:31:13.350Z,13.70
2022-09-12T23:34:34.910Z,13.70
2022-09-12T23:37:56.435Z,13.70
2022-09-12T23:41:19.403Z,13.60
2022-09-12T23:44:40.957Z,13.60
2022-09-12T23:48:02.786Z,13.60
2022-09-12T23:51:24.294Z,13.50
2022-09-12T23:54:45.836Z,13.50
2022-09-12T23:58:09.011Z,13.50
